Auburn, CA

10:39 AM PDT on September 17, 2014 (GMT -0700)
Grass Valley | Change Station
CLOSE
Current Station
Airport
Location: Grass Valley,
Elevation: 3153 ft
Nearby Weather Stations

Elev 3153 ft 39.22 °N, 121.00 °W | Updated 24 minutes ago

Clear
Clear
79 °F
Feels Like 79 °F
N
4
Wind Variable Wind from SSE

Today
High -- | Low -- °F
--% Chance of Precip.
Yesterday
High -- | Low -- °F
Precip. -- in
6:47 AM 7:09 PM
Waning Crescent, 34% visible
Pressure 29.93 in
Visibility 6.0 miles
Clouds Clear
Dew Point 36 °F
Humidity 21%
Rainfall 0.00 in
Snow Depth 0 in , 1 in , 0 in
UV 5 out of 12
Pollen 6.20 out of 12
Ozone Good
Flu Activity Not available.
METAR KGOO 171715Z AUTO 16003KT 6SM CLR 26/02 A2993 RMK AO1

More Conditions Fewer Conditions

Pressure 29.93 in
Visibility 6.0 miles
Clouds Clear
Dew Point 36 °F
Humidity 21%
Rainfall 0.00 in
Snow Depth 0 in , 1 in , 0 in
UV 5 out of 12
Pollen 6.20 out of 12
Ozone Good
Flu Activity Not available.
METAR KGOO 171715Z AUTO 16003KT 6SM CLR 26/02 A2993 RMK AO1

More Conditions Fewer Conditions

10-Day Weather Forecast

Almanac

Astronomy

Sep. 17, 2014 Rise Set
Actual Time 6:47 AM PDT 7:09 PM PDT
Civil Twilight 6:21 AM PDT 7:36 PM PDT
Nautical Twilight 5:49 AM PDT 8:07 PM PDT
Astronomical Twilight 5:17 AM PDT 8:39 PM PDT
Moon 12:54 AM PDT 3:20 PM PDT
Length of Visible Light 13h 15m
Length of Day
12h 21m
Tomorrow will be 2m 31s shorter.
Waning Crescent, 34% of the Moon is Illuminated
Today
Waning Crescent
Sep 24
New
Oct 1
First Quarter
Oct 8
Full
Oct 15
Last Quarter

Today's Extremes

State Highs State Lows

Community

WunderPhotos

Upload Photos

1,754,109 photos uploaded!

Nearby

Air Quality

  Air Quality AQ Index Pollutant
Yesterday Good
OZONE
Current Good
OZONE

Snow Depth

Station Depth Elevation
Spratt Creek 0 in 6200 ft
Summit Meadow 1 in 9122 ft
Forestdale Creek 0 in 8029 ft
CSS Lab 0 in 6900 ft
Leavitt Lake 0 in 9400 ft

Earthquake Activity

City Distance Mag. Time & Date
Cobb, California 87 miles 2.7 1:23 PM PDT
2014-09-16
Minimum magnitude displayed is 2.5.

Coastal Water Temperatures

Place Temperature
No Stations Reporting

Nearby Weather Stations